Terminal Aerodrome Forecast
Issued by NWS

Home | Current Version | Previous Version | Text Only | Print | Product List | Glossary On
Versions: 1 2 3 4 5 6 7 8 9 10 11 12 13 14 15 16 17 18 19 20 21 22 23 24 25 26 27 28 29
000
FTUS41 KBUF 211100 RRA
TAFJHW
TAF
KJHW 211144Z 2112/2212 26011KT 5SM -SHSN OVC015
      TEMPO 2112/2116 2SM -SN BKN015
     FM211800 23007KT P6SM SCT020
     FM220600 20008KT P6SM SCT120
      AMD LTD TO CLD VIS AND WIND=

USA.gov is the U.S. government's official web portal to all federal, state and local government web resources and services.